sensor_id;sensor_type;location;lat;lon;timestamp;temperature;humidity
23723;DHT22;12042;52.136;5.584;2023-03-01T07:10:33;-1.30;99.90
23723;DHT22;12042;52.136;5.584;2023-03-01T07:12:59;-1.10;99.90
23723;DHT22;12042;52.136;5.584;2023-03-01T07:15:26;-1.00;99.90
23723;DHT22;12042;52.136;5.584;2023-03-01T07:17:51;-1.00;99.90
23723;DHT22;12042;52.136;5.584;2023-03-01T07:20:20;-1.10;99.90
23723;DHT22;12042;52.136;5.584;2023-03-01T07:22:54;-1.20;99.90
23723;DHT22;12042;52.136;5.584;2023-03-01T07:25:20;-1.30;99.90
23723;DHT22;12042;52.136;5.584;2023-03-01T07:27:50;-1.30;99.90
23723;DHT22;12042;52.136;5.584;2023-03-01T07:30:16;-1.30;99.90
23723;DHT22;12042;52.136;5.584;2023-03-01T07:32:42;-1.20;99.90
23723;DHT22;12042;52.136;5.584;2023-03-01T07:35:07;-1.20;99.90
23723;DHT22;12042;52.136;5.584;2023-03-01T07:37:33;-1.10;99.90
23723;DHT22;12042;52.136;5.584;2023-03-01T07:39:59;-1.00;99.90
23723;DHT22;12042;52.136;5.584;2023-03-01T07:42:24;-1.00;99.90
23723;DHT22;12042;52.136;5.584;2023-03-01T07:44:50;-0.90;99.90
23723;DHT22;12042;52.136;5.584;2023-03-01T07:47:15;-0.90;99.90
23723;DHT22;12042;52.136;5.584;2023-03-01T07:49:41;-0.80;99.90
23723;DHT22;12042;52.136;5.584;2023-03-01T07:52:06;-0.70;99.90
23723;DHT22;12042;52.136;5.584;2023-03-01T07:54:34;-0.60;99.90
23723;DHT22;12042;52.136;5.584;2023-03-01T07:57:00;-0.50;99.90
23723;DHT22;12042;52.136;5.584;2023-03-01T07:59:25;-0.30;99.90
23723;DHT22;12042;52.136;5.584;2023-03-01T08:01:55;0.00;99.90
23723;DHT22;12042;52.136;5.584;2023-03-01T08:04:21;0.20;99.90
23723;DHT22;12042;52.136;5.584;2023-03-01T08:06:47;0.40;99.90
23723;DHT22;12042;52.136;5.584;2023-03-01T08:09:13;0.60;99.90
23723;DHT22;12042;52.136;5.584;2023-03-01T08:11:38;0.90;99.90
23723;DHT22;12042;52.136;5.584;2023-03-01T08:14:05;1.10;99.90
23723;DHT22;12042;52.136;5.584;2023-03-01T08:16:31;1.30;99.90
23723;DHT22;12042;52.136;5.584;2023-03-01T08:19:12;1.40;99.90
23723;DHT22;12042;52.136;5.584;2023-03-01T08:21:38;1.60;99.90
23723;DHT22;12042;52.136;5.584;2023-03-01T08:24:05;1.90;99.90
23723;DHT22;12042;52.136;5.584;2023-03-01T08:26:32;2.00;99.90
23723;DHT22;12042;52.136;5.584;2023-03-01T08:28:59;1.90;99.90
23723;DHT22;12042;52.136;5.584;2023-03-01T08:31:30;1.90;99.90
23723;DHT22;12042;52.136;5.584;2023-03-01T08:33:58;2.00;99.90
23723;DHT22;12042;52.136;5.584;2023-03-01T08:36:27;1.90;99.90
23723;DHT22;12042;52.136;5.584;2023-03-01T08:38:53;1.90;99.90
23723;DHT22;12042;52.136;5.584;2023-03-01T08:41:19;1.80;99.90
23723;DHT22;12042;52.136;5.584;2023-03-01T08:43:45;1.90;99.90
23723;DHT22;12042;52.136;5.584;2023-03-01T08:46:11;1.90;99.90
23723;DHT22;12042;52.136;5.584;2023-03-01T08:48:37;2.00;99.90
23723;DHT22;12042;52.136;5.584;2023-03-01T08:51:10;2.10;99.90
23723;DHT22;12042;52.136;5.584;2023-03-01T08:53:36;2.20;99.90
23723;DHT22;12042;52.136;5.584;2023-03-01T08:56:02;2.30;99.90
23723;DHT22;12042;52.136;5.584;2023-03-01T08:58:30;2.40;99.90
23723;DHT22;12042;52.136;5.584;2023-03-01T09:00:56;2.40;99.90
23723;DHT22;12042;52.136;5.584;2023-03-01T09:03:23;2.50;99.90
23723;DHT22;12042;52.136;5.584;2023-03-01T09:05:49;2.60;99.90
23723;DHT22;12042;52.136;5.584;2023-03-01T09:08:19;2.60;99.90
23723;DHT22;12042;52.136;5.584;2023-03-01T09:10:45;2.60;99.90
23723;DHT22;12042;52.136;5.584;2023-03-01T09:13:11;2.70;99.90
23723;DHT22;12042;52.136;5.584;2023-03-01T09:15:37;2.80;99.90
23723;DHT22;12042;52.136;5.584;2023-03-01T09:18:05;2.90;99.90
23723;DHT22;12042;52.136;5.584;2023-03-01T09:20:31;3.00;99.90
23723;DHT22;12042;52.136;5.584;2023-03-01T09:22:57;3.20;99.90
23723;DHT22;12042;52.136;5.584;2023-03-01T09:25:23;3.40;99.90
23723;DHT22;12042;52.136;5.584;2023-03-01T09:27:53;3.60;99.90
23723;DHT22;12042;52.136;5.584;2023-03-01T09:30:19;3.70;99.90
23723;DHT22;12042;52.136;5.584;2023-03-01T09:32:45;3.70;99.90
23723;DHT22;12042;52.136;5.584;2023-03-01T09:35:11;3.90;99.90
23723;DHT22;12042;52.136;5.584;2023-03-01T09:37:37;4.00;99.90
23723;DHT22;12042;52.136;5.584;2023-03-01T09:40:05;4.00;99.90
23723;DHT22;12042;52.136;5.584;2023-03-01T09:42:34;4.10;99.90
23723;DHT22;12042;52.136;5.584;2023-03-01T09:45:11;4.10;99.90
23723;DHT22;12042;52.136;5.584;2023-03-01T09:47:40;4.10;99.90
23723;DHT22;12042;52.136;5.584;2023-03-01T09:50:13;4.10;99.90
23723;DHT22;12042;52.136;5.584;2023-03-01T09:53:01;4.20;99.90
23723;DHT22;12042;52.136;5.584;2023-03-01T09:55:39;4.30;99.90
23723;DHT22;12042;52.136;5.584;2023-03-01T10:01:33;4.50;99.90
23723;DHT22;12042;52.136;5.584;2023-03-01T10:06:41;4.90;99.90
23723;DHT22;12042;52.136;5.584;2023-03-01T10:09:16;5.10;99.90
23723;DHT22;12042;52.136;5.584;2023-03-01T10:11:50;5.10;99.90
23723;DHT22;12042;52.136;5.584;2023-03-01T10:19:46;5.40;99.90
23723;DHT22;12042;52.136;5.584;2023-03-01T10:22:28;5.50;99.90
23723;DHT22;12042;52.136;5.584;2023-03-01T10:24:58;5.60;99.90
23723;DHT22;12042;52.136;5.584;2023-03-01T10:27:34;5.40;99.90
23723;DHT22;12042;52.136;5.584;2023-03-01T10:30:17;5.40;99.90
23723;DHT22;12042;52.136;5.584;2023-03-01T10:32:45;5.60;99.90
23723;DHT22;12042;52.136;5.584;2023-03-01T10:35:20;5.60;99.90
23723;DHT22;12042;52.136;5.584;2023-03-01T10:38:06;5.60;99.90
23723;DHT22;12042;52.136;5.584;2023-03-01T10:40:33;5.70;99.90
23723;DHT22;12042;52.136;5.584;2023-03-01T10:43:01;5.70;99.90
23723;DHT22;12042;52.136;5.584;2023-03-01T10:45:34;5.70;99.90
23723;DHT22;12042;52.136;5.584;2023-03-01T10:50:44;5.80;99.90
23723;DHT22;12042;52.136;5.584;2023-03-01T10:56:07;6.20;99.90
23723;DHT22;12042;52.136;5.584;2023-03-01T10:58:36;6.20;99.90
23723;DHT22;12042;52.136;5.584;2023-03-01T11:03:41;6.00;99.90
23723;DHT22;12042;52.136;5.584;2023-03-01T11:08:42;6.20;99.90
23723;DHT22;12042;52.136;5.584;2023-03-01T11:14:00;6.30;99.90
23723;DHT22;12042;52.136;5.584;2023-03-01T11:16:33;6.40;99.90
23723;DHT22;12042;52.136;5.584;2023-03-01T11:21:32;6.90;99.90
23723;DHT22;12042;52.136;5.584;2023-03-01T11:24:00;6.90;99.90
23723;DHT22;12042;52.136;5.584;2023-03-01T11:26:27;6.70;99.90
23723;DHT22;12042;52.136;5.584;2023-03-01T11:28:56;6.70;99.90
23723;DHT22;12042;52.136;5.584;2023-03-01T11:31:24;6.60;99.90
23723;DHT22;12042;52.136;5.584;2023-03-01T11:34:14;6.70;99.90
23723;DHT22;12042;52.136;5.584;2023-03-01T11:36:46;6.90;99.90
23723;DHT22;12042;52.136;5.584;2023-03-01T11:42:15;7.20;99.90
23723;DHT22;12042;52.136;5.584;2023-03-01T11:44:43;7.20;99.90
23723;DHT22;12042;52.136;5.584;2023-03-01T11:55:24;7.20;99.90
23723;DHT22;12042;52.136;5.584;2023-03-01T11:58:00;7.20;99.90
23723;DHT22;12042;52.136;5.584;2023-03-01T12:08:52;7.40;99.90
23723;DHT22;12042;52.136;5.584;2023-03-01T12:12:11;7.30;99.90
23723;DHT22;12042;52.136;5.584;2023-03-01T12:18:12;7.20;99.90
23723;DHT22;12042;52.136;5.584;2023-03-01T12:21:14;7.20;99.90
23723;DHT22;12042;52.136;5.584;2023-03-01T12:24:23;7.30;99.90
23723;DHT22;12042;52.136;5.584;2023-03-01T12:40:38;7.70;99.90
23723;DHT22;12042;52.136;5.584;2023-03-01T12:51:10;8.00;99.90
23723;DHT22;12042;52.136;5.584;2023-03-01T12:53:49;7.80;99.90
23723;DHT22;12042;52.136;5.584;2023-03-01T12:56:24;7.70;99.90
23723;DHT22;12042;52.136;5.584;2023-03-01T13:02:25;7.90;99.90
23723;DHT22;12042;52.136;5.584;2023-03-01T13:05:28;7.60;99.90
23723;DHT22;12042;52.136;5.584;2023-03-01T13:08:15;7.70;99.90
23723;DHT22;12042;52.136;5.584;2023-03-01T13:10:50;7.90;99.90
23723;DHT22;12042;52.136;5.584;2023-03-01T13:13:24;7.90;99.90
23723;DHT22;12042;52.136;5.584;2023-03-01T13:15:51;8.00;99.90
23723;DHT22;12042;52.136;5.584;2023-03-01T13:20:46;7.90;99.90
23723;DHT22;12042;52.136;5.584;2023-03-01T13:26:08;7.80;99.90
23723;DHT22;12042;52.136;5.584;2023-03-01T13:31:26;7.70;99.90
23723;DHT22;12042;52.136;5.584;2023-03-01T13:34:02;7.90;99.90
23723;DHT22;12042;52.136;5.584;2023-03-01T13:39:38;8.10;99.90
23723;DHT22;12042;52.136;5.584;2023-03-01T13:42:35;8.00;99.90
23723;DHT22;12042;52.136;5.584;2023-03-01T13:45:32;8.10;99.90
23723;DHT22;12042;52.136;5.584;2023-03-01T13:48:08;8.20;99.90
23723;DHT22;12042;52.136;5.584;2023-03-01T13:50:43;8.20;99.90
23723;DHT22;12042;52.136;5.584;2023-03-01T13:53:14;8.20;99.90
23723;DHT22;12042;52.136;5.584;2023-03-01T13:55:44;8.10;99.90
23723;DHT22;12042;52.136;5.584;2023-03-01T14:00:55;8.40;99.90
23723;DHT22;12042;52.136;5.584;2023-03-01T14:03:21;8.40;99.90
23723;DHT22;12042;52.136;5.584;2023-03-01T14:06:15;8.20;99.90
23723;DHT22;12042;52.136;5.584;2023-03-01T14:08:46;8.00;99.90
23723;DHT22;12042;52.136;5.584;2023-03-01T14:16:52;8.20;99.90
23723;DHT22;12042;52.136;5.584;2023-03-01T14:19:24;8.00;99.90
23723;DHT22;12042;52.136;5.584;2023-03-01T14:22:26;7.90;99.90
23723;DHT22;12042;52.136;5.584;2023-03-01T14:24:56;7.90;99.90
23723;DHT22;12042;52.136;5.584;2023-03-01T14:27:38;7.90;99.90
23723;DHT22;12042;52.136;5.584;2023-03-01T14:30:15;8.00;99.90
23723;DHT22;12042;52.136;5.584;2023-03-01T14:32:41;8.30;99.90
23723;DHT22;12042;52.136;5.584;2023-03-01T14:35:21;8.10;99.90
23723;DHT22;12042;52.136;5.584;2023-03-01T14:37:47;8.10;99.90
23723;DHT22;12042;52.136;5.584;2023-03-01T14:42:52;8.10;99.90
23723;DHT22;12042;52.136;5.584;2023-03-01T14:45:19;8.20;99.90
23723;DHT22;12042;52.136;5.584;2023-03-01T14:47:45;8.10;99.90
23723;DHT22;12042;52.136;5.584;2023-03-01T14:52:47;8.20;99.90
23723;DHT22;12042;52.136;5.584;2023-03-01T14:55:22;8.30;99.90
23723;DHT22;12042;52.136;5.584;2023-03-01T14:57:51;8.30;99.90
23723;DHT22;12042;52.136;5.584;2023-03-01T15:00:25;8.30;99.90
23723;DHT22;12042;52.136;5.584;2023-03-01T15:02:53;8.30;99.90
23723;DHT22;12042;52.136;5.584;2023-03-01T15:05:30;8.30;99.90
23723;DHT22;12042;52.136;5.584;2023-03-01T15:07:58;8.30;99.90
23723;DHT22;12042;52.136;5.584;2023-03-01T15:10:29;8.40;99.90
23723;DHT22;12042;52.136;5.584;2023-03-01T15:12:55;8.50;99.90
23723;DHT22;12042;52.136;5.584;2023-03-01T15:18:21;8.30;99.90
23723;DHT22;12042;52.136;5.584;2023-03-01T15:20:47;8.40;99.90
23723;DHT22;12042;52.136;5.584;2023-03-01T15:23:31;8.40;99.90
23723;DHT22;12042;52.136;5.584;2023-03-01T15:25:57;8.50;99.90
23723;DHT22;12042;52.136;5.584;2023-03-01T15:28:29;8.50;99.90
23723;DHT22;12042;52.136;5.584;2023-03-01T15:31:22;8.60;99.90
23723;DHT22;12042;52.136;5.584;2023-03-01T15:33:48;8.60;99.90
23723;DHT22;12042;52.136;5.584;2023-03-01T15:39:01;8.30;99.90
23723;DHT22;12042;52.136;5.584;2023-03-01T15:41:33;8.40;99.90
23723;DHT22;12042;52.136;5.584;2023-03-01T15:43:59;8.50;99.90
23723;DHT22;12042;52.136;5.584;2023-03-01T15:46:30;8.60;99.90
23723;DHT22;12042;52.136;5.584;2023-03-01T15:48:59;8.60;99.90
23723;DHT22;12042;52.136;5.584;2023-03-01T15:51:37;8.60;99.90
23723;DHT22;12042;52.136;5.584;2023-03-01T15:54:06;8.40;99.90
23723;DHT22;12042;52.136;5.584;2023-03-01T15:56:33;8.40;99.90
23723;DHT22;12042;52.136;5.584;2023-03-01T15:59:01;8.30;99.90
23723;DHT22;12042;52.136;5.584;2023-03-01T16:01:27;8.40;99.90
23723;DHT22;12042;52.136;5.584;2023-03-01T16:03:53;8.30;99.90
23723;DHT22;12042;52.136;5.584;2023-03-01T16:06:19;8.20;99.90
23723;DHT22;12042;52.136;5.584;2023-03-01T16:08:45;8.20;99.90
23723;DHT22;12042;52.136;5.584;2023-03-01T16:11:17;8.10;99.90
23723;DHT22;12042;52.136;5.584;2023-03-01T16:13:44;8.00;99.90
23723;DHT22;12042;52.136;5.584;2023-03-01T16:16:12;8.00;99.90
23723;DHT22;12042;52.136;5.584;2023-03-01T16:18:40;8.00;99.90
23723;DHT22;12042;52.136;5.584;2023-03-01T16:21:06;8.00;99.90
23723;DHT22;12042;52.136;5.584;2023-03-01T16:23:31;8.10;99.90
23723;DHT22;12042;52.136;5.584;2023-03-01T16:26:00;7.90;99.90
23723;DHT22;12042;52.136;5.584;2023-03-01T16:28:26;7.60;99.90
23723;DHT22;12042;52.136;5.584;2023-03-01T16:30:52;7.50;99.90
23723;DHT22;12042;52.136;5.584;2023-03-01T16:33:18;7.40;99.90
23723;DHT22;12042;52.136;5.584;2023-03-01T16:35:46;7.30;99.90
23723;DHT22;12042;52.136;5.584;2023-03-01T16:38:12;7.30;99.90
23723;DHT22;12042;52.136;5.584;2023-03-01T16:40:37;7.30;99.90
23723;DHT22;12042;52.136;5.584;2023-03-01T16:43:03;7.20;99.90
23723;DHT22;12042;52.136;5.584;2023-03-01T16:45:34;7.30;99.90
23723;DHT22;12042;52.136;5.584;2023-03-01T16:48:03;7.20;99.90
23723;DHT22;12042;52.136;5.584;2023-03-01T16:50:28;7.10;99.90
23723;DHT22;12042;52.136;5.584;2023-03-01T16:52:54;7.00;99.90
23723;DHT22;12042;52.136;5.584;2023-03-01T16:55:19;7.00;99.90
23723;DHT22;12042;52.136;5.584;2023-03-01T16:57:45;6.90;99.90
23723;DHT22;12042;52.136;5.584;2023-03-01T17:00:12;6.90;99.90
23723;DHT22;12042;52.136;5.584;2023-03-01T17:02:39;6.80;99.90
23723;DHT22;12042;52.136;5.584;2023-03-01T17:05:07;6.80;99.90
23723;DHT22;12042;52.136;5.584;2023-03-01T17:07:33;6.80;99.90
23723;DHT22;12042;52.136;5.584;2023-03-01T17:10:04;6.70;99.90
23723;DHT22;12042;52.136;5.584;2023-03-01T17:12:30;6.60;99.90
23723;DHT22;12042;52.136;5.584;2023-03-01T17:14:57;6.50;99.90
23723;DHT22;12042;52.136;5.584;2023-03-01T17:17:23;6.50;99.90
23723;DHT22;12042;52.136;5.584;2023-03-01T17:19:48;6.50;99.90
23723;DHT22;12042;52.136;5.584;2023-03-01T17:22:14;6.50;99.90
23723;DHT22;12042;52.136;5.584;2023-03-01T17:24:40;6.50;99.90
23723;DHT22;12042;52.136;5.584;2023-03-01T17:27:07;6.50;99.90
23723;DHT22;12042;52.136;5.584;2023-03-01T17:29:33;6.40;99.90
23723;DHT22;12042;52.136;5.584;2023-03-01T17:31:59;6.40;99.90
23723;DHT22;12042;52.136;5.584;2023-03-01T17:34:25;6.30;99.90
23723;DHT22;12042;52.136;5.584;2023-03-01T17:36:50;6.30;99.90
23723;DHT22;12042;52.136;5.584;2023-03-01T17:39:17;6.30;99.90
23723;DHT22;12042;52.136;5.584;2023-03-01T17:41:45;6.20;99.90
23723;DHT22;12042;52.136;5.584;2023-03-01T17:44:10;6.20;99.90
23723;DHT22;12042;52.136;5.584;2023-03-01T17:46:36;6.20;99.90
23723;DHT22;12042;52.136;5.584;2023-03-01T17:49:02;6.20;99.90
23723;DHT22;12042;52.136;5.584;2023-03-01T17:51:28;6.10;99.90
23723;DHT22;12042;52.136;5.584;2023-03-01T17:53:53;6.10;99.90
23723;DHT22;12042;52.136;5.584;2023-03-01T17:56:19;6.00;99.90
23723;DHT22;12042;52.136;5.584;2023-03-01T17:58:44;5.90;99.90
23723;DHT22;12042;52.136;5.584;2023-03-01T18:01:16;5.90;99.90
23723;DHT22;12042;52.136;5.584;2023-03-01T18:03:42;5.70;99.90
23723;DHT22;12042;52.136;5.584;2023-03-01T18:08:37;5.60;99.90
23723;DHT22;12042;52.136;5.584;2023-03-01T18:11:03;5.50;99.90
23723;DHT22;12042;52.136;5.584;2023-03-01T18:13:28;5.50;99.90
23723;DHT22;12042;52.136;5.584;2023-03-01T18:15:54;5.40;99.90
23723;DHT22;12042;52.136;5.584;2023-03-01T18:18:25;5.40;99.90
23723;DHT22;12042;52.136;5.584;2023-03-01T18:20:55;5.30;99.90
23723;DHT22;12042;52.136;5.584;2023-03-01T18:23:21;5.30;99.90
23723;DHT22;12042;52.136;5.584;2023-03-01T18:25:47;5.30;99.90
23723;DHT22;12042;52.136;5.584;2023-03-01T18:28:12;5.30;99.90
23723;DHT22;12042;52.136;5.584;2023-03-01T18:30:38;5.30;99.90
23723;DHT22;12042;52.136;5.584;2023-03-01T18:33:04;5.20;99.90
23723;DHT22;12042;52.136;5.584;2023-03-01T18:35:29;5.20;99.90
23723;DHT22;12042;52.136;5.584;2023-03-01T18:37:56;5.10;99.90
23723;DHT22;12042;52.136;5.584;2023-03-01T18:40:22;5.10;99.90
23723;DHT22;12042;52.136;5.584;2023-03-01T18:42:47;5.00;99.90
23723;DHT22;12042;52.136;5.584;2023-03-01T18:45:13;4.90;99.90
23723;DHT22;12042;52.136;5.584;2023-03-01T18:47:41;4.80;99.90
23723;DHT22;12042;52.136;5.584;2023-03-01T18:50:07;4.80;99.90
23723;DHT22;12042;52.136;5.584;2023-03-01T18:52:33;4.80;99.90
23723;DHT22;12042;52.136;5.584;2023-03-01T18:54:58;4.90;99.90
23723;DHT22;12042;52.136;5.584;2023-03-01T18:57:24;4.90;99.90
23723;DHT22;12042;52.136;5.584;2023-03-01T18:59:50;5.00;99.90
23723;DHT22;12042;52.136;5.584;2023-03-01T19:02:15;5.00;99.90
23723;DHT22;12042;52.136;5.584;2023-03-01T19:04:41;4.90;99.90
23723;DHT22;12042;52.136;5.584;2023-03-01T19:07:09;4.90;99.90
23723;DHT22;12042;52.136;5.584;2023-03-01T19:09:34;4.80;99.90
23723;DHT22;12042;52.136;5.584;2023-03-01T19:12:00;4.90;99.90
23723;DHT22;12042;52.136;5.584;2023-03-01T19:14:27;5.00;99.90
23723;DHT22;12042;52.136;5.584;2023-03-01T19:16:53;5.20;99.90
23723;DHT22;12042;52.136;5.584;2023-03-01T19:19:18;5.30;99.90
23723;DHT22;12042;52.136;5.584;2023-03-01T19:21:44;5.30;99.90
23723;DHT22;12042;52.136;5.584;2023-03-01T19:24:10;5.30;99.90
23723;DHT22;12042;52.136;5.584;2023-03-01T19:26:37;5.30;99.90
23723;DHT22;12042;52.136;5.584;2023-03-01T19:29:06;5.20;99.90
23723;DHT22;12042;52.136;5.584;2023-03-01T19:31:32;5.10;99.90
23723;DHT22;12042;52.136;5.584;2023-03-01T19:33:58;4.90;99.90
23723;DHT22;12042;52.136;5.584;2023-03-01T19:36:24;4.80;99.90
23723;DHT22;12042;52.136;5.584;2023-03-01T19:39:01;4.90;99.90
23723;DHT22;12042;52.136;5.584;2023-03-01T19:41:28;5.10;99.90
23723;DHT22;12042;52.136;5.584;2023-03-01T19:43:54;5.30;99.90
23723;DHT22;12042;52.136;5.584;2023-03-01T19:46:21;5.40;99.90
23723;DHT22;12042;52.136;5.584;2023-03-01T19:48:48;5.40;99.90
23723;DHT22;12042;52.136;5.584;2023-03-01T19:51:13;5.40;99.90
23723;DHT22;12042;52.136;5.584;2023-03-01T19:53:39;5.30;99.90
23723;DHT22;12042;52.136;5.584;2023-03-01T19:56:05;5.30;99.90
23723;DHT22;12042;52.136;5.584;2023-03-01T19:58:31;5.40;99.90
23723;DHT22;12042;52.136;5.584;2023-03-01T20:00:58;5.40;99.90
23723;DHT22;12042;52.136;5.584;2023-03-01T20:03:30;5.20;99.90
23723;DHT22;12042;52.136;5.584;2023-03-01T20:05:56;5.10;99.90
23723;DHT22;12042;52.136;5.584;2023-03-01T20:08:23;5.10;99.90
23723;DHT22;12042;52.136;5.584;2023-03-01T20:10:49;5.10;99.90
23723;DHT22;12042;52.136;5.584;2023-03-01T20:13:15;5.10;99.90
23723;DHT22;12042;52.136;5.584;2023-03-01T20:15:41;5.30;99.90
23723;DHT22;12042;52.136;5.584;2023-03-01T20:18:08;5.10;99.90
23723;DHT22;12042;52.136;5.584;2023-03-01T20:20:35;4.90;99.90
23723;DHT22;12042;52.136;5.584;2023-03-01T20:23:01;4.80;99.90
23723;DHT22;12042;52.136;5.584;2023-03-01T20:25:26;4.70;99.90
23723;DHT22;12042;52.136;5.584;2023-03-01T20:27:52;4.60;99.90
23723;DHT22;12042;52.136;5.584;2023-03-01T20:30:17;4.30;99.90
23723;DHT22;12042;52.136;5.584;2023-03-01T20:32:43;4.20;99.90
23723;DHT22;12042;52.136;5.584;2023-03-01T20:35:09;4.00;99.90
23723;DHT22;12042;52.136;5.584;2023-03-01T20:37:36;3.90;99.90
23723;DHT22;12042;52.136;5.584;2023-03-01T20:40:02;3.80;99.90
23723;DHT22;12042;52.136;5.584;2023-03-01T20:42:28;3.90;99.90
23723;DHT22;12042;52.136;5.584;2023-03-01T20:44:53;3.80;99.90
23723;DHT22;12042;52.136;5.584;2023-03-01T20:47:19;3.80;99.90
23723;DHT22;12042;52.136;5.584;2023-03-01T20:49:48;3.70;99.90
23723;DHT22;12042;52.136;5.584;2023-03-01T20:52:14;3.60;99.90
23723;DHT22;12042;52.136;5.584;2023-03-01T20:54:39;3.40;99.90
23723;DHT22;12042;52.136;5.584;2023-03-01T20:57:05;3.30;99.90
23723;DHT22;12042;52.136;5.584;2023-03-01T20:59:31;3.40;99.90
23723;DHT22;12042;52.136;5.584;2023-03-01T21:01:56;3.50;99.90
23723;DHT22;12042;52.136;5.584;2023-03-01T21:04:22;3.40;99.90
23723;DHT22;12042;52.136;5.584;2023-03-01T21:06:47;3.40;99.90
23723;DHT22;12042;52.136;5.584;2023-03-01T21:09:13;3.40;99.90
23723;DHT22;12042;52.136;5.584;2023-03-01T21:11:38;3.50;99.90
23723;DHT22;12042;52.136;5.584;2023-03-01T21:14:04;3.60;99.90
23723;DHT22;12042;52.136;5.584;2023-03-01T21:16:31;3.60;99.90
23723;DHT22;12042;52.136;5.584;2023-03-01T21:19:00;3.50;99.90
23723;DHT22;12042;52.136;5.584;2023-03-01T21:21:27;3.50;99.90
23723;DHT22;12042;52.136;5.584;2023-03-01T21:23:53;3.40;99.90
23723;DHT22;12042;52.136;5.584;2023-03-01T21:26:24;3.40;99.90
23723;DHT22;12042;52.136;5.584;2023-03-01T21:28:54;3.30;99.90
23723;DHT22;12042;52.136;5.584;2023-03-01T21:31:23;3.20;99.90
23723;DHT22;12042;52.136;5.584;2023-03-01T21:33:51;3.10;99.90
23723;DHT22;12042;52.136;5.584;2023-03-01T21:36:18;3.00;99.90
23723;DHT22;12042;52.136;5.584;2023-03-01T21:38:46;3.00;99.90
23723;DHT22;12042;52.136;5.584;2023-03-01T21:41:16;3.00;99.90
23723;DHT22;12042;52.136;5.584;2023-03-01T21:43:43;3.00;99.90
23723;DHT22;12042;52.136;5.584;2023-03-01T21:46:11;3.00;99.90
23723;DHT22;12042;52.136;5.584;2023-03-01T21:48:39;3.00;99.90
23723;DHT22;12042;52.136;5.584;2023-03-01T21:51:06;3.00;99.90
23723;DHT22;12042;52.136;5.584;2023-03-01T21:53:33;2.90;99.90
23723;DHT22;12042;52.136;5.584;2023-03-01T21:56:00;2.90;99.90
23723;DHT22;12042;52.136;5.584;2023-03-01T21:58:35;2.90;99.90
23723;DHT22;12042;52.136;5.584;2023-03-01T22:01:13;2.90;99.90
23723;DHT22;12042;52.136;5.584;2023-03-01T22:03:39;3.10;99.90
23723;DHT22;12042;52.136;5.584;2023-03-01T22:06:18;3.10;99.90
23723;DHT22;12042;52.136;5.584;2023-03-01T22:08:50;3.10;99.90
23723;DHT22;12042;52.136;5.584;2023-03-01T22:11:17;3.10;99.90
23723;DHT22;12042;52.136;5.584;2023-03-01T22:13:44;3.10;99.90
23723;DHT22;12042;52.136;5.584;2023-03-01T22:16:15;3.10;99.90
23723;DHT22;12042;52.136;5.584;2023-03-01T22:18:41;3.20;99.90
23723;DHT22;12042;52.136;5.584;2023-03-01T22:21:07;3.20;99.90
23723;DHT22;12042;52.136;5.584;2023-03-01T22:23:35;3.20;99.90
23723;DHT22;12042;52.136;5.584;2023-03-01T22:26:01;3.10;99.90
